Time,TemperatureF,DewpointF,PressureIn,WindDirection,WindDirectionDegrees,WindSpeedMPH,WindSpeedGustMPH,Humidity,HourlyPrecipIn,Conditions,Clouds,dailyrainin,SoftwareType,DateUTC
2013-11-28 00:01:00,51.8,41.7,30.22,North,0,0.7,1.1,68,0.00,,,0.00,WUHU216HW,2013-11-28 05:01:00,
2013-11-28 00:06:00,51.5,41.3,30.22,SSE,158,0.2,1.1,68,0.00,,,0.00,WUHU216HW,2013-11-28 05:06:00,
2013-11-28 00:11:00,51.5,41.3,30.22,SE,135,0.2,1.1,68,0.00,,,0.00,WUHU216HW,2013-11-28 05:11:00,
2013-11-28 00:16:00,51.5,41.3,30.22,ESE,113,0.4,1.6,68,0.00,,,0.00,WUHU216HW,2013-11-28 05:16:00,
2013-11-28 00:21:00,51.1,41.0,30.22,East,90,0.7,1.6,68,0.00,,,0.00,WUHU216HW,2013-11-28 05:21:00,
2013-11-28 00:26:00,50.9,40.8,30.22,ENE,68,0.0,1.1,68,0.00,,,0.00,WUHU216HW,2013-11-28 05:26:00,
2013-11-28 00:31:00,50.9,40.8,30.22,North,0,0.4,0.7,68,0.00,,,0.00,WUHU216HW,2013-11-28 05:31:00,
2013-11-28 00:36:00,50.9,40.8,30.22,North,0,0.0,0.7,68,0.00,,,0.00,WUHU216HW,2013-11-28 05:36:00,
2013-11-28 00:41:00,50.8,40.6,30.22,North,0,0.0,0.9,68,0.00,,,0.00,WUHU216HW,2013-11-28 05:41:00,
2013-11-28 00:46:00,50.8,40.6,30.22,NNW,338,0.2,1.3,68,0.00,,,0.00,WUHU216HW,2013-11-28 05:46:00,
2013-11-28 00:51:00,50.6,40.4,30.22,NNE,23,0.0,1.3,68,0.00,,,0.00,WUHU216HW,2013-11-28 05:51:00,
2013-11-28 00:56:00,50.6,40.4,30.22,SE,135,0.2,0.4,68,0.00,,,0.00,WUHU216HW,2013-11-28 05:56:00,
2013-11-28 01:01:00,50.4,40.2,30.22,NNE,23,0.0,1.1,68,0.00,,,0.00,WUHU216HW,2013-11-28 06:01:00,
2013-11-28 01:06:00,50.2,40.1,30.22,North,0,0.0,1.1,68,0.00,,,0.00,WUHU216HW,2013-11-28 06:06:00,
2013-11-28 01:11:00,50.2,40.1,30.22,East,90,0.4,0.9,68,0.00,,,0.00,WUHU216HW,2013-11-28 06:11:00,
2013-11-28 01:16:00,50.2,40.1,30.22,NNE,23,0.2,0.9,68,0.00,,,0.00,WUHU216HW,2013-11-28 06:16:00,
2013-11-28 01:21:00,50.0,39.9,30.22,NNW,338,0.2,1.3,68,0.00,,,0.00,WUHU216HW,2013-11-28 06:21:00,
2013-11-28 01:26:00,50.0,39.9,30.22,ENE,68,0.0,1.3,68,0.00,,,0.00,WUHU216HW,2013-11-28 06:26:00,
2013-11-28 01:31:00,49.9,39.7,30.22,NNE,23,0.0,0.9,68,0.00,,,0.00,WUHU216HW,2013-11-28 06:31:00,
2013-11-28 01:36:00,49.7,39.5,30.22,North,0,0.2,0.9,68,0.00,,,0.00,WUHU216HW,2013-11-28 06:36:00,
2013-11-28 01:41:00,49.5,39.3,30.22,NNW,338,0.2,0.9,68,0.00,,,0.00,WUHU216HW,2013-11-28 06:41:00,
2013-11-28 01:46:00,49.5,39.3,30.22,NE,45,0.0,2.2,68,0.00,,,0.00,WUHU216HW,2013-11-28 06:46:00,
2013-11-28 01:51:00,49.3,38.8,30.22,NNW,338,0.4,2.2,67,0.00,,,0.00,WUHU216HW,2013-11-28 06:51:00,
2013-11-28 01:56:00,49.3,39.2,30.22,NNW,338,0.2,1.6,68,0.00,,,0.00,WUHU216HW,2013-11-28 06:56:00,
2013-11-28 02:01:00,49.3,38.8,30.22,East,90,0.2,1.1,67,0.00,,,0.00,WUHU216HW,2013-11-28 07:01:00,
2013-11-28 02:06:00,49.1,38.6,30.22,NNE,23,0.0,1.3,67,0.00,,,0.00,WUHU216HW,2013-11-28 07:06:00,
2013-11-28 02:11:00,49.1,38.6,30.22,ENE,68,0.4,1.3,67,0.00,,,0.00,WUHU216HW,2013-11-28 07:11:00,
2013-11-28 02:16:00,49.1,38.6,30.22,North,0,0.0,1.1,67,0.00,,,0.00,WUHU216HW,2013-11-28 07:16:00,
2013-11-28 02:21:00,49.0,38.4,30.23,ENE,68,0.0,0.7,67,0.00,,,0.00,WUHU216HW,2013-11-28 07:21:00,
2013-11-28 02:26:00,48.8,38.3,30.23,ENE,68,0.4,0.7,67,0.00,,,0.00,WUHU216HW,2013-11-28 07:26:00,
2013-11-28 02:31:00,48.6,37.7,30.23,NNE,23,0.2,1.1,66,0.00,,,0.00,WUHU216HW,2013-11-28 07:31:00,
2013-11-28 02:36:00,48.6,37.7,30.23,ENE,68,0.2,2.2,66,0.00,,,0.00,WUHU216HW,2013-11-28 07:36:00,
2013-11-28 02:41:00,48.4,37.5,30.23,North,0,0.4,2.2,66,0.00,,,0.00,WUHU216HW,2013-11-28 07:41:00,
2013-11-28 02:46:00,48.4,37.2,30.23,NNE,23,0.4,1.1,65,0.00,,,0.00,WUHU216HW,2013-11-28 07:46:00,
2013-11-28 02:51:00,48.2,36.6,30.23,NNW,338,0.4,2.0,64,0.00,,,0.00,WUHU216HW,2013-11-28 07:51:00,
2013-11-28 02:56:00,48.1,36.8,30.23,NE,45,0.4,2.0,65,0.00,,,0.00,WUHU216HW,2013-11-28 07:56:00,
2013-11-28 03:01:00,48.1,36.5,30.23,ENE,68,0.9,1.1,64,0.00,,,0.00,WUHU216HW,2013-11-28 08:01:00,
2013-11-28 03:06:00,48.1,36.8,30.23,NNW,338,0.4,1.8,65,0.00,,,0.00,WUHU216HW,2013-11-28 08:06:00,
2013-11-28 03:11:00,47.9,36.3,30.23,East,90,0.2,1.8,64,0.00,,,0.00,WUHU216HW,2013-11-28 08:11:00,
2013-11-28 03:16:00,47.9,36.6,30.23,NW,315,0.0,1.1,65,0.00,,,0.00,WUHU216HW,2013-11-28 08:16:00,
2013-11-28 03:21:00,47.9,36.6,30.23,WSW,248,0.0,1.1,65,0.00,,,0.00,WUHU216HW,2013-11-28 08:21:00,
2013-11-28 03:26:00,47.9,36.6,30.23,ESE,113,0.0,1.1,65,0.00,,,0.00,WUHU216HW,2013-11-28 08:26:00,
2013-11-28 03:31:00,47.9,36.3,30.24,NNE,23,0.0,1.1,64,0.00,,,0.00,WUHU216HW,2013-11-28 08:31:00,
2013-11-28 03:36:00,47.5,35.6,30.24,NNE,23,0.0,1.3,63,0.00,,,0.00,WUHU216HW,2013-11-28 08:36:00,
2013-11-28 03:41:00,47.5,35.6,30.24,NNW,338,0.4,1.3,63,0.00,,,0.00,WUHU216HW,2013-11-28 08:41:00,
2013-11-28 03:46:00,47.3,35.4,30.24,NNE,23,0.4,1.3,63,0.00,,,0.00,WUHU216HW,2013-11-28 08:46:00,
2013-11-28 03:51:00,47.2,34.8,30.24,NNW,338,1.1,1.8,62,0.00,,,0.00,WUHU216HW,2013-11-28 08:51:00,
2013-11-28 03:56:00,47.2,34.4,30.25,NNE,23,1.8,2.2,61,0.00,,,0.00,WUHU216HW,2013-11-28 08:56:00,
2013-11-28 04:01:00,47.2,35.2,30.25,NE,45,0.0,2.2,63,0.00,,,0.00,WUHU216HW,2013-11-28 09:01:00,
2013-11-28 04:06:00,46.8,34.0,30.25,NNE,23,0.2,1.8,61,0.00,,,0.00,WUHU216HW,2013-11-28 09:06:00,
2013-11-28 04:11:00,46.8,34.0,30.25,North,0,0.9,0.9,61,0.00,,,0.00,WUHU216HW,2013-11-28 09:11:00,
2013-11-28 04:16:00,46.8,34.5,30.25,NNW,338,0.4,1.1,62,0.00,,,0.00,WUHU216HW,2013-11-28 09:16:00,
2013-11-28 04:21:00,46.6,34.3,30.25,NNW,338,0.0,1.8,62,0.00,,,0.00,WUHU216HW,2013-11-28 09:21:00,
2013-11-28 04:26:00,46.6,34.7,30.26,WNW,293,0.0,1.8,63,0.00,,,0.00,WUHU216HW,2013-11-28 09:26:00,
2013-11-28 04:31:00,46.4,34.5,30.26,ENE,68,0.2,1.6,63,0.00,,,0.00,WUHU216HW,2013-11-28 09:31:00,
2013-11-28 04:36:00,46.4,34.5,30.26,NNE,23,0.9,1.6,63,0.00,,,0.00,WUHU216HW,2013-11-28 09:36:00,
2013-11-28 04:41:00,46.3,34.3,30.27,NNE,23,0.2,1.1,63,0.00,,,0.00,WUHU216HW,2013-11-28 09:41:00,
2013-11-28 04:46:00,46.1,34.1,30.27,NNW,338,0.4,1.1,63,0.00,,,0.00,WUHU216HW,2013-11-28 09:46:00,
2013-11-28 04:51:00,46.1,34.1,30.27,NE,45,0.4,1.1,63,0.00,,,0.00,WUHU216HW,2013-11-28 09:51:00,
2013-11-28 04:56:00,45.9,34.0,30.27,ENE,68,0.9,1.3,63,0.00,,,0.00,WUHU216HW,2013-11-28 09:56:00,
2013-11-28 05:01:00,45.7,33.9,30.27,NNW,338,0.4,1.3,63,0.00,,,0.00,WUHU216HW,2013-11-28 10:01:00,
2013-11-28 05:06:00,45.7,33.9,30.28,North,0,0.2,0.9,63,0.00,,,0.00,WUHU216HW,2013-11-28 10:06:00,
2013-11-28 05:11:00,45.5,33.7,30.28,NNW,338,0.0,0.4,63,0.00,,,0.00,WUHU216HW,2013-11-28 10:11:00,
2013-11-28 05:16:00,45.5,33.7,30.28,NNE,23,0.2,0.7,63,0.00,,,0.00,WUHU216HW,2013-11-28 10:16:00,
2013-11-28 05:21:00,45.4,33.5,30.28,NW,315,0.2,0.7,63,0.00,,,0.00,WUHU216HW,2013-11-28 10:21:00,
2013-11-28 05:26:00,45.2,33.3,30.28,East,90,0.2,0.9,63,0.00,,,0.00,WUHU216HW,2013-11-28 10:26:00,
2013-11-28 05:31:00,45.0,33.1,30.28,NNW,338,0.0,0.9,63,0.00,,,0.00,WUHU216HW,2013-11-28 10:31:00,
2013-11-28 05:36:00,45.0,33.1,30.28,NE,45,0.4,0.4,63,0.00,,,0.00,WUHU216HW,2013-11-28 10:36:00,
2013-11-28 05:41:00,44.8,32.9,30.28,North,0,0.0,0.9,63,0.00,,,0.00,WUHU216HW,2013-11-28 10:41:00,
2013-11-28 05:46:00,44.6,32.9,30.28,NW,315,0.4,0.9,63,0.00,,,0.00,WUHU216HW,2013-11-28 10:46:00,
2013-11-28 05:51:00,44.5,32.7,30.28,NNE,23,0.0,0.7,63,0.00,,,0.00,WUHU216HW,2013-11-28 10:51:00,
2013-11-28 05:56:00,44.3,32.5,30.28,ENE,68,0.4,1.3,63,0.00,,,0.00,WUHU216HW,2013-11-28 10:56:00,
2013-11-28 06:01:00,44.5,32.7,30.28,West,270,0.0,1.3,63,0.00,,,0.00,WUHU216HW,2013-11-28 11:01:00,
2013-11-28 06:05:00,44.3,32.5,30.29,NNW,338,0.4,1.1,63,0.00,,,0.00,WUHU216HW,2013-11-28 11:05:00,
2013-11-28 06:10:00,44.3,32.5,30.29,North,0,0.0,0.9,63,0.00,,,0.00,WUHU216HW,2013-11-28 11:10:00,
2013-11-28 06:16:00,44.3,32.9,30.29,North,0,0.0,0.9,64,0.00,,,0.00,WUHU216HW,2013-11-28 11:16:00,
2013-11-28 06:21:00,44.3,32.9,30.29,ENE,68,0.0,0.2,64,0.00,,,0.00,WUHU216HW,2013-11-28 11:21:00,
2013-11-28 06:26:00,44.3,32.9,30.29,NNW,338,0.0,0.4,64,0.00,,,0.00,WUHU216HW,2013-11-28 11:26:00,
2013-11-28 06:30:00,44.3,32.9,30.30,NE,45,0.0,0.9,64,0.00,,,0.00,WUHU216HW,2013-11-28 11:30:00,
2013-11-28 06:36:00,44.1,32.7,30.29,SE,135,0.4,1.1,64,0.00,,,0.00,WUHU216HW,2013-11-28 11:36:00,
2013-11-28 06:40:00,43.9,32.5,30.29,NNW,338,0.4,1.1,64,0.00,,,0.00,WUHU216HW,2013-11-28 11:40:00,
2013-11-28 06:45:00,43.9,32.9,30.30,NW,315,0.0,1.1,65,0.00,,,0.00,WUHU216HW,2013-11-28 11:45:00,
2013-11-28 06:50:00,43.9,32.9,30.30,NNW,338,0.0,1.1,65,0.00,,,0.00,WUHU216HW,2013-11-28 11:50:00,
2013-11-28 06:55:00,43.7,32.8,30.30,NE,45,0.0,1.1,65,0.00,,,0.00,WUHU216HW,2013-11-28 11:55:00,
2013-11-28 07:00:00,43.6,33.0,30.31,NE,45,0.2,2.0,66,0.00,,,0.00,WUHU216HW,2013-11-28 12:00:00,
2013-11-28 07:05:00,43.6,33.0,30.31,North,0,0.0,2.0,66,0.00,,,0.00,WUHU216HW,2013-11-28 12:05:00,
2013-11-28 07:10:00,43.6,33.0,30.31,ENE,68,0.0,0.7,66,0.00,,,0.00,WUHU216HW,2013-11-28 12:10:00,
2013-11-28 07:15:00,43.6,33.0,30.31,North,0,0.0,0.7,66,0.00,,,0.00,WUHU216HW,2013-11-28 12:15:00,
2013-11-28 07:20:00,43.6,33.0,30.31,North,0,0.0,0.4,66,0.00,,,0.00,WUHU216HW,2013-11-28 12:20:00,
2013-11-28 07:25:00,43.7,33.1,30.32,NNE,23,0.0,0.4,66,0.00,,,0.00,WUHU216HW,2013-11-28 12:25:00,
2013-11-28 07:30:00,43.7,33.1,30.32,North,0,0.0,0.4,66,0.00,,,0.00,WUHU216HW,2013-11-28 12:30:00,
2013-11-28 07:35:00,43.6,33.3,30.32,NNW,338,0.0,0.4,67,0.00,,,0.00,WUHU216HW,2013-11-28 12:35:00,
2013-11-28 07:40:00,43.6,33.3,30.32,NNE,23,0.2,0.4,67,0.00,,,0.00,WUHU216HW,2013-11-28 12:40:00,
2013-11-28 07:45:00,43.6,33.3,30.32,ENE,68,0.0,0.4,67,0.00,,,0.00,WUHU216HW,2013-11-28 12:45:00,
2013-11-28 07:50:00,43.6,33.3,30.32,NNE,23,0.0,0.2,67,0.00,,,0.00,WUHU216HW,2013-11-28 12:50:00,
2013-11-28 07:55:00,43.6,33.3,30.32,North,0,0.4,0.4,67,0.00,,,0.00,WUHU216HW,2013-11-28 12:55:00,
2013-11-28 08:00:00,43.6,33.3,30.33,SSW,203,0.2,0.4,67,0.00,,,0.00,WUHU216HW,2013-11-28 13:00:00,
2013-11-28 08:05:00,43.6,33.3,30.33,NNW,338,0.2,0.7,67,0.00,,,0.00,WUHU216HW,2013-11-28 13:05:00,
2013-11-28 08:10:00,43.7,33.8,30.33,NNW,338,1.1,1.1,68,0.00,,,0.00,WUHU216HW,2013-11-28 13:10:00,
2013-11-28 08:15:00,43.7,33.8,30.33,NNE,23,0.0,1.1,68,0.00,,,0.00,WUHU216HW,2013-11-28 13:15:00,
2013-11-28 08:20:00,43.9,34.0,30.33,North,0,0.2,1.1,68,0.00,,,0.00,WUHU216HW,2013-11-28 13:20:00,
2013-11-28 08:25:00,44.1,33.9,30.33,SSE,158,0.0,0.7,67,0.00,,,0.00,WUHU216HW,2013-11-28 13:25:00,
2013-11-28 08:30:00,44.3,34.0,30.33,West,270,0.4,0.9,67,0.00,,,0.00,WUHU216HW,2013-11-28 13:30:00,
2013-11-28 08:35:00,44.5,34.2,30.33,NNW,338,0.2,0.9,67,0.00,,,0.00,WUHU216HW,2013-11-28 13:35:00,
2013-11-28 08:40:00,44.8,34.5,30.34,NNE,23,0.0,0.9,67,0.00,,,0.00,WUHU216HW,2013-11-28 13:40:00,
2013-11-28 08:45:00,45.2,34.8,30.33,North,0,0.2,0.9,67,0.00,,,0.00,WUHU216HW,2013-11-28 13:45:00,
2013-11-28 08:50:00,45.4,34.7,30.34,North,0,0.2,1.1,66,0.00,,,0.00,WUHU216HW,2013-11-28 13:50:00,
2013-11-28 08:55:00,45.5,34.8,30.34,NE,45,0.2,1.1,66,0.00,,,0.00,WUHU216HW,2013-11-28 13:55:00,
2013-11-28 09:00:00,45.7,34.6,30.34,East,90,1.1,1.1,65,0.00,,,0.00,WUHU216HW,2013-11-28 14:00:00,
2013-11-28 09:05:00,46.1,35.4,30.34,North,0,0.2,1.1,66,0.00,,,0.00,WUHU216HW,2013-11-28 14:05:00,
2013-11-28 09:10:00,46.8,35.7,30.35,NE,45,0.2,1.1,65,0.00,,,0.00,WUHU216HW,2013-11-28 14:10:00,
2013-11-28 09:15:00,47.2,36.0,30.35,SW,225,0.2,0.7,65,0.00,,,0.00,WUHU216HW,2013-11-28 14:15:00,
2013-11-28 09:20:00,47.3,35.7,30.35,NNW,338,0.0,0.7,64,0.00,,,0.00,WUHU216HW,2013-11-28 14:20:00,
2013-11-28 09:25:00,47.9,36.3,30.35,North,0,0.4,1.1,64,0.00,,,0.00,WUHU216HW,2013-11-28 14:25:00,
2013-11-28 09:30:00,48.2,36.6,30.36,North,0,0.2,1.1,64,0.00,,,0.00,WUHU216HW,2013-11-28 14:30:00,
2013-11-28 09:35:00,48.4,36.4,30.36,ESE,113,0.0,1.1,63,0.00,,,0.00,WUHU216HW,2013-11-28 14:35:00,
2013-11-28 09:40:00,48.8,36.7,30.35,NNE,23,0.0,1.3,63,0.00,,,0.00,WUHU216HW,2013-11-28 14:40:00,
2013-11-28 09:45:00,49.3,37.6,30.36,East,90,0.2,1.3,64,0.00,,,0.00,WUHU216HW,2013-11-28 14:45:00,
2013-11-28 09:50:00,49.7,38.0,30.35,WNW,293,0.4,1.1,64,0.00,,,0.00,WUHU216HW,2013-11-28 14:50:00,
2013-11-28 09:55:00,50.2,38.4,30.36,NE,45,0.4,1.1,64,0.00,,,0.00,WUHU216HW,2013-11-28 14:55:00,
2013-11-28 10:00:00,50.8,39.0,30.36,ENE,68,1.1,1.1,64,0.00,,,0.00,WUHU216HW,2013-11-28 15:00:00,
2013-11-28 10:05:00,51.3,39.5,30.36,NNE,23,0.4,1.1,64,0.00,,,0.00,WUHU216HW,2013-11-28 15:05:00,
2013-11-28 10:10:00,51.7,39.4,30.36,NNE,23,0.2,1.1,63,0.00,,,0.00,WUHU216HW,2013-11-28 15:10:00,
2013-11-28 10:15:00,52.2,40.3,30.36,North,0,0.4,1.8,64,0.00,,,0.00,WUHU216HW,2013-11-28 15:15:00,
2013-11-28 10:20:00,52.7,40.4,30.36,NE,45,0.4,1.8,63,0.00,,,0.00,WUHU216HW,2013-11-28 15:20:00,
2013-11-28 10:25:00,53.3,41.0,30.36,NNE,23,0.0,1.1,63,0.00,,,0.00,WUHU216HW,2013-11-28 15:25:00,
2013-11-28 10:30:00,53.6,41.0,30.35,ESE,113,0.9,0.9,62,0.00,,,0.00,WUHU216HW,2013-11-28 15:30:00,
2013-11-28 10:35:00,54.0,41.2,30.35,East,90,1.8,1.8,62,0.00,,,0.00,WUHU216HW,2013-11-28 15:35:00,
2013-11-28 10:40:00,54.5,42.2,30.35,North,0,0.0,1.8,63,0.00,,,0.00,WUHU216HW,2013-11-28 15:40:00,
2013-11-28 10:45:00,55.3,42.4,30.35,ENE,68,0.0,1.8,62,0.00,,,0.00,WUHU216HW,2013-11-28 15:45:00,
2013-11-28 10:50:00,55.8,42.6,30.36,North,0,0.4,1.1,61,0.00,,,0.00,WUHU216HW,2013-11-28 15:50:00,
2013-11-28 10:55:00,56.0,42.3,30.35,ENE,68,0.4,0.9,60,0.00,,,0.00,WUHU216HW,2013-11-28 15:55:00,
2013-11-28 11:00:00,56.2,42.9,30.34,North,0,1.1,1.1,61,0.00,,,0.00,WUHU216HW,2013-11-28 16:00:00,
2013-11-28 11:05:00,56.5,43.2,30.35,NNE,23,1.1,1.1,61,0.00,,,0.00,WUHU216HW,2013-11-28 16:05:00,
2013-11-28 11:10:00,57.1,43.4,30.35,SE,135,0.7,2.2,60,0.00,,,0.00,WUHU216HW,2013-11-28 16:10:00,
2013-11-28 11:15:00,57.4,43.8,30.35,NNW,338,0.4,2.2,60,0.00,,,0.00,WUHU216HW,2013-11-28 16:15:00,
2013-11-28 11:20:00,57.6,43.4,30.34,NNE,23,0.4,2.0,59,0.00,,,0.00,WUHU216HW,2013-11-28 16:20:00,
2013-11-28 11:25:00,58.0,44.2,30.34,NNW,338,0.4,0.9,60,0.00,,,0.00,WUHU216HW,2013-11-28 16:25:00,
2013-11-28 11:30:00,58.3,44.1,30.34,WNW,293,0.4,1.3,59,0.00,,,0.00,WUHU216HW,2013-11-28 16:30:00,
2013-11-28 11:35:00,58.9,44.6,30.33,NE,45,0.0,1.3,59,0.00,,,0.00,WUHU216HW,2013-11-28 16:35:00,
2013-11-28 11:40:00,59.4,44.7,30.33,ESE,113,0.4,1.6,58,0.00,,,0.00,WUHU216HW,2013-11-28 16:40:00,
2013-11-28 11:45:00,59.6,45.3,30.33,North,0,0.9,1.8,59,0.00,,,0.00,WUHU216HW,2013-11-28 16:45:00,
2013-11-28 11:50:00,59.9,45.6,30.33,NE,45,0.2,1.8,59,0.00,,,0.00,WUHU216HW,2013-11-28 16:50:00,
2013-11-28 11:55:00,60.3,45.0,30.32,ENE,68,0.4,1.6,57,0.00,,,0.00,WUHU216HW,2013-11-28 16:55:00,
2013-11-28 12:00:00,60.5,45.6,30.32,ESE,113,1.3,1.8,58,0.00,,,0.00,WUHU216HW,2013-11-28 17:00:00,
2013-11-28 12:05:00,60.8,45.6,30.32,NNW,338,0.9,2.5,57,0.00,,,0.00,WUHU216HW,2013-11-28 17:05:00,
2013-11-28 12:10:00,61.2,45.4,30.32,East,90,0.9,2.5,56,0.00,,,0.00,WUHU216HW,2013-11-28 17:10:00,
2013-11-28 12:15:00,61.6,46.2,30.32,North,0,0.0,2.0,57,0.00,,,0.00,WUHU216HW,2013-11-28 17:15:00,
2013-11-28 12:20:00,62.1,45.2,30.31,SE,135,3.1,3.1,54,0.00,,,0.00,WUHU216HW,2013-11-28 17:20:00,
2013-11-28 12:25:00,62.1,45.7,30.31,NE,45,0.4,3.1,55,0.00,,,0.00,WUHU216HW,2013-11-28 17:25:00,
2013-11-28 12:30:00,62.5,46.0,30.31,North,0,0.4,3.1,55,0.00,,,0.00,WUHU216HW,2013-11-28 17:30:00,
2013-11-28 12:35:00,62.6,45.7,30.30,North,0,0.4,0.9,54,0.00,,,0.00,WUHU216HW,2013-11-28 17:35:00,
2013-11-28 12:40:00,63.0,46.0,30.30,NNE,23,0.2,2.0,54,0.00,,,0.00,WUHU216HW,2013-11-28 17:40:00,
2013-11-28 12:45:00,63.4,46.8,30.30,SE,135,0.0,2.0,55,0.00,,,0.00,WUHU216HW,2013-11-28 17:45:00,
2013-11-28 12:50:00,63.7,47.6,30.29,North,0,0.2,1.6,56,0.00,,,0.00,WUHU216HW,2013-11-28 17:50:00,
2013-11-28 12:55:00,64.4,47.4,30.29,NE,45,0.9,0.9,54,0.00,,,0.00,WUHU216HW,2013-11-28 17:55:00,
2013-11-28 13:00:00,64.8,48.2,30.29,NNW,338,0.4,1.6,55,0.00,,,0.00,WUHU216HW,2013-11-28 18:00:00,
2013-11-28 13:05:00,65.3,49.1,30.29,NNW,338,0.4,1.6,56,0.00,,,0.00,WUHU216HW,2013-11-28 18:05:00,
2013-11-28 13:10:00,65.9,48.8,30.29,East,90,0.9,1.3,54,0.00,,,0.00,WUHU216HW,2013-11-28 18:10:00,
2013-11-28 13:15:00,65.5,47.9,30.29,NNE,23,0.4,1.8,53,0.00,,,0.00,WUHU216HW,2013-11-28 18:15:00,
2013-11-28 13:20:00,65.9,48.2,30.28,NE,45,0.4,1.8,53,0.00,,,0.00,WUHU216HW,2013-11-28 18:20:00,
2013-11-28 13:25:00,66.2,48.6,30.28,NNE,23,0.7,0.7,53,0.00,,,0.00,WUHU216HW,2013-11-28 18:25:00,
2013-11-28 13:30:00,66.6,48.4,30.27,North,0,0.2,1.8,52,0.00,,,0.00,WUHU216HW,2013-11-28 18:30:00,
2013-11-28 13:35:00,66.4,47.8,30.27,East,90,0.4,2.0,51,0.00,,,0.00,WUHU216HW,2013-11-28 18:35:00,
2013-11-28 13:40:00,66.4,48.3,30.26,East,90,0.4,2.0,52,0.00,,,0.00,WUHU216HW,2013-11-28 18:40:00,
2013-11-28 13:45:00,66.4,47.8,30.26,North,0,0.4,1.3,51,0.00,,,0.00,WUHU216HW,2013-11-28 18:45:00,
2013-11-28 13:50:00,66.4,47.4,30.26,North,0,0.2,1.3,50,0.00,,,0.00,WUHU216HW,2013-11-28 18:50:00,
2013-11-28 13:55:00,66.2,47.6,30.26,North,0,0.0,0.9,51,0.00,,,0.00,WUHU216HW,2013-11-28 18:55:00,
2013-11-28 14:00:00,66.1,46.4,30.26,North,0,0.4,1.1,49,0.00,,,0.00,WUHU216HW,2013-11-28 19:00:00,
2013-11-28 14:05:00,65.7,45.5,30.26,North,0,0.4,1.1,48,0.00,,,0.00,WUHU216HW,2013-11-28 19:05:00,
2013-11-28 14:10:00,65.3,45.7,30.25,North,0,0.0,0.9,49,0.00,,,0.00,WUHU216HW,2013-11-28 19:10:00,
2013-11-28 14:15:00,65.2,44.9,30.25,ENE,68,0.2,0.9,48,0.00,,,0.00,WUHU216HW,2013-11-28 19:15:00,
2013-11-28 14:20:00,65.0,45.4,30.25,NW,315,0.0,1.1,49,0.00,,,0.00,WUHU216HW,2013-11-28 19:20:00,
2013-11-28 14:25:00,64.6,45.0,30.26,ENE,68,0.0,1.6,49,0.00,,,0.00,WUHU216HW,2013-11-28 19:25:00,
2013-11-28 14:30:00,64.4,44.2,30.26,West,270,0.4,1.6,48,0.00,,,0.00,WUHU216HW,2013-11-28 19:30:00,
2013-11-28 14:35:00,64.3,43.5,30.26,East,90,1.1,1.1,47,0.00,,,0.00,WUHU216HW,2013-11-28 19:35:00,
2013-11-28 14:40:00,64.1,43.9,30.25,East,90,0.4,1.1,48,0.00,,,0.00,WUHU216HW,2013-11-28 19:40:00,
2013-11-28 14:45:00,63.9,43.8,30.25,NE,45,1.1,1.8,48,0.00,,,0.00,WUHU216HW,2013-11-28 19:45:00,
2013-11-28 14:50:00,63.7,44.1,30.25,NE,45,0.4,1.8,49,0.00,,,0.00,WUHU216HW,2013-11-28 19:50:00,
2013-11-28 14:55:00,63.5,43.4,30.25,North,0,0.4,1.8,48,0.00,,,0.00,WUHU216HW,2013-11-28 19:55:00,
2013-11-28 15:00:00,63.5,44.0,30.25,NNW,338,0.4,1.8,49,0.00,,,0.00,WUHU216HW,2013-11-28 20:00:00,
2013-11-28 15:05:00,63.4,43.8,30.25,NNE,23,0.0,1.1,49,0.00,,,0.00,WUHU216HW,2013-11-28 20:05:00,
2013-11-28 15:10:00,63.4,43.2,30.25,NNE,23,0.4,1.1,48,0.00,,,0.00,WUHU216HW,2013-11-28 20:10:00,
2013-11-28 15:15:00,63.2,43.7,30.25,NNW,338,0.2,1.1,49,0.00,,,0.00,WUHU216HW,2013-11-28 20:15:00,
2013-11-28 15:20:00,63.2,43.7,30.26,NW,315,0.2,1.1,49,0.00,,,0.00,WUHU216HW,2013-11-28 20:20:00,
2013-11-28 15:25:00,63.2,45.2,30.26,SSE,158,1.1,1.8,52,0.00,,,0.00,WUHU216HW,2013-11-28 20:25:00,
2013-11-28 15:30:00,63.0,45.0,30.26,North,0,0.0,1.8,52,0.00,,,0.00,WUHU216HW,2013-11-28 20:30:00,
2013-11-28 15:35:00,63.0,46.0,30.26,North,0,0.0,1.1,54,0.00,,,0.00,WUHU216HW,2013-11-28 20:35:00,
2013-11-28 15:40:00,62.6,46.6,30.26,North,0,0.0,1.1,56,0.00,,,0.00,WUHU216HW,2013-11-28 20:40:00,
2013-11-28 15:45:00,62.5,47.0,30.26,NW,315,1.1,1.1,57,0.00,,,0.00,WUHU216HW,2013-11-28 20:45:00,
2013-11-28 15:50:00,62.3,47.4,30.27,NE,45,0.2,1.6,58,0.00,,,0.00,WUHU216HW,2013-11-28 20:50:00,
2013-11-28 15:55:00,61.9,47.0,30.27,SW,225,0.2,1.6,58,0.00,,,0.00,WUHU216HW,2013-11-28 20:55:00,
2013-11-28 16:00:00,61.7,47.4,30.27,ESE,113,0.4,0.9,59,0.00,,,0.00,WUHU216HW,2013-11-28 21:00:00,
2013-11-28 16:05:00,61.6,47.2,30.27,ESE,113,0.0,0.9,59,0.00,,,0.00,WUHU216HW,2013-11-28 21:05:00,
2013-11-28 16:10:00,61.4,47.4,30.27,WNW,293,0.4,2.2,60,0.00,,,0.00,WUHU216HW,2013-11-28 21:10:00,
2013-11-28 16:15:00,61.4,47.9,30.27,NNW,338,0.0,2.2,61,0.00,,,0.00,WUHU216HW,2013-11-28 21:15:00,
2013-11-28 16:20:00,61.2,47.7,30.28,East,90,0.7,0.9,61,0.00,,,0.00,WUHU216HW,2013-11-28 21:20:00,
2013-11-28 16:25:00,60.8,47.4,30.28,WSW,248,0.4,2.5,61,0.00,,,0.00,WUHU216HW,2013-11-28 21:25:00,
2013-11-28 16:30:00,60.7,47.6,30.28,NW,315,0.0,2.5,62,0.00,,,0.00,WUHU216HW,2013-11-28 21:30:00,
2013-11-28 16:35:00,60.5,47.4,30.28,NW,315,0.0,1.8,62,0.00,,,0.00,WUHU216HW,2013-11-28 21:35:00,
2013-11-28 16:40:00,60.5,47.9,30.28,ENE,68,0.0,1.8,63,0.00,,,0.00,WUHU216HW,2013-11-28 21:40:00,
2013-11-28 16:45:00,60.3,47.7,30.28,WNW,293,0.2,2.5,63,0.00,,,0.00,WUHU216HW,2013-11-28 21:45:00,
2013-11-28 16:50:00,60.1,47.9,30.28,WNW,293,1.1,2.5,64,0.00,,,0.00,WUHU216HW,2013-11-28 21:50:00,
2013-11-28 16:55:00,59.9,47.4,30.29,NNW,338,0.0,1.8,63,0.00,,,0.00,WUHU216HW,2013-11-28 21:55:00,
2013-11-28 17:00:00,59.9,47.7,30.29,NW,315,0.0,2.0,64,0.00,,,0.00,WUHU216HW,2013-11-28 22:00:00,
2013-11-28 17:05:00,59.8,47.5,30.29,NNW,338,0.0,2.0,64,0.00,,,0.00,WUHU216HW,2013-11-28 22:05:00,
2013-11-28 17:10:00,59.4,47.2,30.29,NNW,338,0.0,1.8,64,0.00,,,0.00,WUHU216HW,2013-11-28 22:10:00,
2013-11-28 17:15:00,59.4,47.2,30.29,North,0,0.0,1.8,64,0.00,,,0.00,WUHU216HW,2013-11-28 22:15:00,
2013-11-28 17:20:00,59.2,47.0,30.29,North,0,0.0,1.8,64,0.00,,,0.00,WUHU216HW,2013-11-28 22:20:00,
2013-11-28 17:25:00,59.0,47.3,30.29,SE,135,0.0,0.4,65,0.00,,,0.00,WUHU216HW,2013-11-28 22:25:00,
2013-11-28 17:30:00,58.9,47.1,30.29,NE,45,0.2,1.1,65,0.00,,,0.00,WUHU216HW,2013-11-28 22:30:00,
2013-11-28 17:35:00,58.7,46.9,30.29,North,0,0.7,1.1,65,0.00,,,0.00,WUHU216HW,2013-11-28 22:35:00,
2013-11-28 17:40:00,58.5,47.2,30.30,NNE,23,0.2,1.8,66,0.00,,,0.00,WUHU216HW,2013-11-28 22:40:00,
2013-11-28 17:45:00,58.3,47.3,30.30,ENE,68,0.9,1.8,67,0.00,,,0.00,WUHU216HW,2013-11-28 22:45:00,
2013-11-28 17:50:00,58.3,47.0,30.31,North,0,0.0,0.9,66,0.00,,,0.00,WUHU216HW,2013-11-28 22:50:00,
2013-11-28 17:55:00,58.3,47.0,30.30,SSE,158,0.2,0.9,66,0.00,,,0.00,WUHU216HW,2013-11-28 22:55:00,
2013-11-28 18:00:00,58.1,47.3,30.30,North,0,0.0,0.7,67,0.00,,,0.00,WUHU216HW,2013-11-28 23:00:00,
2013-11-28 18:05:00,58.1,47.3,30.30,North,0,0.2,1.8,67,0.00,,,0.00,WUHU216HW,2013-11-28 23:05:00,
2013-11-28 18:10:00,58.0,46.6,30.30,NNE,23,0.0,1.8,66,0.00,,,0.00,WUHU216HW,2013-11-28 23:10:00,
2013-11-28 18:15:00,58.0,47.1,30.30,North,0,0.0,0.4,67,0.00,,,0.00,WUHU216HW,2013-11-28 23:15:00,
2013-11-28 18:20:00,57.8,46.9,30.31,NE,45,0.2,0.9,67,0.00,,,0.00,WUHU216HW,2013-11-28 23:20:00,
2013-11-28 18:25:00,57.8,47.3,30.31,NE,45,0.0,0.9,68,0.00,,,0.00,WUHU216HW,2013-11-28 23:25:00,
2013-11-28 18:30:00,57.6,46.7,30.31,NNW,338,0.2,0.7,67,0.00,,,0.00,WUHU216HW,2013-11-28 23:30:00,
2013-11-28 18:35:00,57.6,47.1,30.31,NNE,23,0.0,0.7,68,0.00,,,0.00,WUHU216HW,2013-11-28 23:35:00,
2013-11-28 18:40:00,57.4,46.9,30.32,North,0,0.2,0.4,68,0.00,,,0.00,WUHU216HW,2013-11-28 23:40:00,
2013-11-28 18:45:00,57.4,47.4,30.31,East,90,0.2,0.4,69,0.00,,,0.00,WUHU216HW,2013-11-28 23:45:00,
2013-11-28 18:50:00,57.4,46.9,30.31,NW,315,0.0,0.4,68,0.00,,,0.00,WUHU216HW,2013-11-28 23:50:00,
2013-11-28 18:55:00,57.2,47.2,30.31,NNE,23,0.0,0.7,69,0.00,,,0.00,WUHU216HW,2013-11-28 23:55:00,
2013-11-28 19:00:00,57.2,47.2,30.32,NNE,23,0.0,0.7,69,0.00,,,0.00,WUHU216HW,2013-11-29 00:00:00,
2013-11-28 19:05:00,57.2,47.2,30.32,NNE,23,0.0,0.4,69,0.00,,,0.00,WUHU216HW,2013-11-29 00:05:00,
2013-11-28 19:10:00,57.2,47.2,30.32,North,0,0.0,0.2,69,0.00,,,0.00,WUHU216HW,2013-11-29 00:10:00,
2013-11-28 19:15:00,57.2,47.2,30.33,North,0,0.0,0.2,69,0.00,,,0.00,WUHU216HW,2013-11-29 00:15:00,
2013-11-28 19:20:00,57.2,47.2,30.33,NNW,338,0.0,0.2,69,0.00,,,0.00,WUHU216HW,2013-11-29 00:20:00,
2013-11-28 19:25:00,57.1,47.0,30.33,North,0,0.0,0.9,69,0.00,,,0.00,WUHU216HW,2013-11-29 00:25:00,
2013-11-28 19:30:00,57.1,47.0,30.33,North,0,0.0,0.9,69,0.00,,,0.00,WUHU216HW,2013-11-29 00:30:00,
2013-11-28 19:35:00,56.9,47.2,30.33,North,0,0.0,0.2,70,0.00,,,0.00,WUHU216HW,2013-11-29 00:35:00,
2013-11-28 19:40:00,56.9,47.5,30.33,North,0,0.0,0.2,71,0.00,,,0.00,WUHU216HW,2013-11-29 00:40:00,
2013-11-28 19:45:00,56.9,47.2,30.33,North,0,0.0,0.2,70,0.00,,,0.00,WUHU216HW,2013-11-29 00:45:00,
2013-11-28 19:50:00,56.9,47.2,30.34,NW,315,0.4,0.4,70,0.00,,,0.00,WUHU216HW,2013-11-29 00:50:00,
2013-11-28 19:55:00,56.9,47.5,30.34,NNE,23,0.0,0.4,71,0.00,,,0.00,WUHU216HW,2013-11-29 00:55:00,
2013-11-28 20:00:00,56.9,47.5,30.34,North,0,0.2,0.4,71,0.00,,,0.00,WUHU216HW,2013-11-29 01:00:00,
2013-11-28 20:05:00,56.9,47.5,30.34,North,0,0.0,0.7,71,0.00,,,0.00,WUHU216HW,2013-11-29 01:05:00,
2013-11-28 20:10:00,56.9,47.5,30.34,North,0,0.0,0.7,71,0.00,,,0.00,WUHU216HW,2013-11-29 01:10:00,
2013-11-28 20:15:00,56.9,47.5,30.34,NNW,338,0.9,0.9,71,0.00,,,0.00,WUHU216HW,2013-11-29 01:15:00,
2013-11-28 20:20:00,56.9,47.5,30.33,North,0,0.0,1.1,71,0.00,,,0.00,WUHU216HW,2013-11-29 01:20:00,
2013-11-28 20:25:00,56.9,47.5,30.33,North,0,0.2,1.1,71,0.00,,,0.00,WUHU216HW,2013-11-29 01:25:00,
2013-11-28 20:30:00,56.9,47.9,30.33,NNW,338,0.4,0.7,72,0.00,,,0.00,WUHU216HW,2013-11-29 01:30:00,
2013-11-28 20:35:00,56.9,47.9,30.33,NNE,23,0.2,0.9,72,0.00,,,0.00,WUHU216HW,2013-11-29 01:35:00,
2013-11-28 20:40:00,56.9,47.9,30.34,ENE,68,0.0,0.9,72,0.00,,,0.00,WUHU216HW,2013-11-29 01:40:00,
2013-11-28 20:45:00,56.9,47.9,30.34,NE,45,0.0,1.1,72,0.00,,,0.00,WUHU216HW,2013-11-29 01:45:00,
2013-11-28 20:50:00,56.9,48.2,30.34,East,90,0.4,1.6,73,0.00,,,0.00,WUHU216HW,2013-11-29 01:50:00,
2013-11-28 20:55:00,56.9,48.2,30.34,NNE,23,0.0,1.6,73,0.00,,,0.00,WUHU216HW,2013-11-29 01:55:00,
2013-11-28 21:00:00,57.1,48.4,30.34,North,0,0.0,1.1,73,0.00,,,0.00,WUHU216HW,2013-11-29 02:00:00,
2013-11-28 21:05:00,57.1,48.4,30.34,NE,45,2.0,2.0,73,0.00,,,0.00,WUHU216HW,2013-11-29 02:05:00,
2013-11-28 21:10:00,57.1,48.4,30.35,East,90,0.0,2.0,73,0.00,,,0.00,WUHU216HW,2013-11-29 02:10:00,
2013-11-28 21:15:00,57.1,48.4,30.35,ENE,68,0.4,2.0,73,0.00,,,0.00,WUHU216HW,2013-11-29 02:15:00,
2013-11-28 21:20:00,57.1,48.4,30.35,NNE,23,0.4,1.3,73,0.00,,,0.00,WUHU216HW,2013-11-29 02:20:00,
2013-11-28 21:25:00,57.1,48.4,30.35,NNE,23,0.0,1.3,73,0.00,,,0.00,WUHU216HW,2013-11-29 02:25:00,
2013-11-28 21:30:00,56.9,48.2,30.34,NE,45,0.0,0.7,73,0.00,,,0.00,WUHU216HW,2013-11-29 02:30:00,
2013-11-28 21:35:00,56.9,48.2,30.34,NNE,23,0.4,0.9,73,0.00,,,0.00,WUHU216HW,2013-11-29 02:35:00,
2013-11-28 21:40:00,56.9,48.2,30.34,North,0,0.0,1.1,73,0.00,,,0.00,WUHU216HW,2013-11-29 02:40:00,
2013-11-28 21:45:00,56.7,48.4,30.34,NNE,23,0.0,1.1,74,0.00,,,0.00,WUHU216HW,2013-11-29 02:45:00,
2013-11-28 21:50:00,56.5,48.0,30.34,NNE,23,0.2,1.1,73,0.00,,,0.00,WUHU216HW,2013-11-29 02:50:00,
2013-11-28 21:55:00,56.5,48.2,30.34,North,0,0.0,1.1,74,0.00,,,0.00,WUHU216HW,2013-11-29 02:55:00,
2013-11-28 22:00:00,56.5,48.2,30.34,NNE,23,0.0,0.4,74,0.00,,,0.00,WUHU216HW,2013-11-29 03:00:00,
2013-11-28 22:05:00,56.5,48.2,30.34,NNE,23,0.2,2.7,74,0.00,,,0.00,WUHU216HW,2013-11-29 03:05:00,
2013-11-28 22:10:00,56.5,48.2,30.35,East,90,0.2,2.7,74,0.00,,,0.00,WUHU216HW,2013-11-29 03:10:00,
2013-11-28 22:15:00,56.5,48.2,30.35,NNW,338,0.2,1.3,74,0.00,,,0.00,WUHU216HW,2013-11-29 03:15:00,
2013-11-28 22:20:00,56.3,48.2,30.35,NNW,338,0.4,1.3,74,0.00,,,0.00,WUHU216HW,2013-11-29 03:20:00,
2013-11-28 22:25:00,56.3,48.5,30.34,West,270,0.4,1.1,75,0.00,,,0.00,WUHU216HW,2013-11-29 03:25:00,
2013-11-28 22:30:00,56.2,48.0,30.34,NE,45,0.0,1.1,74,0.00,,,0.00,WUHU216HW,2013-11-29 03:30:00,
2013-11-28 22:35:00,56.2,48.0,30.34,North,0,0.2,0.9,74,0.00,,,0.00,WUHU216HW,2013-11-29 03:35:00,
2013-11-28 22:40:00,56.2,48.3,30.34,NW,315,0.2,2.7,75,0.00,,,0.00,WUHU216HW,2013-11-29 03:40:00,
2013-11-28 22:45:00,56.0,48.2,30.34,North,0,0.4,2.7,75,0.00,,,0.00,WUHU216HW,2013-11-29 03:45:00,
2013-11-28 22:50:00,56.0,48.2,30.34,NNE,23,0.0,0.4,75,0.00,,,0.00,WUHU216HW,2013-11-29 03:50:00,
2013-11-28 22:55:00,55.8,48.0,30.34,NE,45,0.7,0.9,75,0.00,,,0.00,WUHU216HW,2013-11-29 03:55:00,
2013-11-28 23:00:00,55.8,48.3,30.34,NNE,23,0.4,1.1,76,0.00,,,0.00,WUHU216HW,2013-11-29 04:00:00,
2013-11-28 23:05:00,55.8,48.3,30.34,NNW,338,0.0,1.1,76,0.00,,,0.00,WUHU216HW,2013-11-29 04:05:00,
2013-11-28 23:10:00,55.8,48.6,30.34,SE,135,0.2,1.1,77,0.00,,,0.00,WUHU216HW,2013-11-29 04:10:00,
2013-11-28 23:15:00,55.6,48.2,30.34,NNE,23,0.4,1.1,76,0.00,,,0.00,WUHU216HW,2013-11-29 04:15:00,
2013-11-28 23:20:00,55.6,48.2,30.34,East,90,0.0,2.0,76,0.00,,,0.00,WUHU216HW,2013-11-29 04:20:00,
2013-11-28 23:25:00,55.4,48.0,30.34,NNW,338,0.4,2.0,76,0.00,,,0.00,WUHU216HW,2013-11-29 04:25:00,
2013-11-28 23:30:00,55.4,48.0,30.34,North,0,0.4,1.1,76,0.00,,,0.00,WUHU216HW,2013-11-29 04:30:00,
2013-11-28 23:35:00,55.4,48.0,30.34,NNW,338,0.4,0.9,76,0.00,,,0.00,WUHU216HW,2013-11-29 04:35:00,
2013-11-28 23:40:00,55.4,48.0,30.34,NNW,338,0.0,0.9,76,0.00,,,0.00,WUHU216HW,2013-11-29 04:40:00,
2013-11-28 23:45:00,55.4,48.3,30.34,East,90,0.4,0.7,77,0.00,,,0.00,WUHU216HW,2013-11-29 04:45:00,
2013-11-28 23:50:00,55.3,48.2,30.34,West,270,0.2,1.8,77,0.00,,,0.00,WUHU216HW,2013-11-29 04:50:00,
2013-11-28 23:55:00,55.1,48.0,30.34,North,0,0.0,1.8,77,0.00,,,0.00,WUHU216HW,2013-11-29 04:55:00,